Wheatfield, New York
Current Conditions -  °F | °C
As of 7:01 AM on Monday 20 Oct 2014 (Local Time) from KIAG Reporting Station
Broken Clouds Broken Clouds  
Wind Chill: 40°   Ceiling: 9000
Heat Index: 40°   Visibility: 10mi
Dew Point: 36°   Wind: 3mph
Humidity: 86%   Direction: 130°SE
Pressure: 29.91"   Gusts: NA
Location:  43.1007°N, 78.9485°W
Report Text: KIAG 201101Z 13003KT 10SM SCT047 BKN090 BKN200 04/02 A2991 RMK AO2 T00440022
Loading
Personal Weather Stations






























Interactive Weather Map New forecast layout! Learn more

10-Day Weather Forecast

Advertisements
Track Severe Weather on mobile